createdAt,value
2022-10-01T00:00:04.256Z,997.8
2022-10-01T00:03:04.268Z,997.8
2022-10-01T00:05:04.236Z,997.8
2022-10-01T00:08:04.225Z,997.8
2022-10-01T00:10:04.238Z,997.8
2022-10-01T00:13:04.208Z,997.8
2022-10-01T00:15:06.069Z,997.8
2022-10-01T00:17:04.191Z,997.8
2022-10-01T00:20:10.635Z,997.8
2022-10-01T00:23:04.195Z,997.7
2022-10-01T00:25:04.203Z,997.8
2022-10-01T00:27:04.205Z,997.8
2022-10-01T00:29:58.741Z,997.7
2022-10-01T00:32:04.222Z,997.6
2022-10-01T00:34:04.192Z,997.6
2022-10-01T00:36:04.263Z,997.6
2022-10-01T00:39:04.195Z,997.5
2022-10-01T00:41:04.223Z,997.6
2022-10-01T00:44:04.172Z,997.6
2022-10-01T00:46:04.305Z,997.6
2022-10-01T00:49:04.184Z,997.6
2022-10-01T00:51:04.208Z,997.5
2022-10-01T00:54:04.337Z,997.6
2022-10-01T00:57:04.219Z,997.5
2022-10-01T01:00:04.211Z,997.5
2022-10-01T01:02:04.236Z,997.5
2022-10-01T01:07:04.232Z,997.5
2022-10-01T01:09:14.473Z,997.5
2022-10-01T01:11:15.466Z,997.4
2022-10-01T01:14:04.177Z,997.4
2022-10-01T01:17:04.247Z,997.4
2022-10-01T01:20:04.213Z,997.4
2022-10-01T01:22:04.222Z,997.4
2022-10-01T01:25:04.249Z,997.4
2022-10-01T01:28:04.233Z,997.4
2022-10-01T01:30:04.242Z,997.3
2022-10-01T01:33:04.237Z,997.3
2022-10-01T01:36:04.207Z,997.3
2022-10-01T01:38:04.232Z,997.3
2022-10-01T01:40:04.239Z,997.2
2022-10-01T01:43:04.224Z,997.1
2022-10-01T01:45:04.220Z,997
2022-10-01T01:48:04.268Z,997
2022-10-01T01:51:04.214Z,997
2022-10-01T01:54:04.195Z,997
2022-10-01T01:56:04.671Z,997
2022-10-01T01:59:04.197Z,996.9
2022-10-01T02:01:04.303Z,997
2022-10-01T02:03:04.255Z,997
2022-10-01T02:06:04.223Z,997.1
2022-10-01T02:08:04.254Z,997
2022-10-01T02:11:04.218Z,996.9
2022-10-01T02:13:04.232Z,996.8
2022-10-01T02:16:04.446Z,996.8
2022-10-01T02:19:04.205Z,996.9
2022-10-01T02:22:04.219Z,996.8
2022-10-01T02:24:04.208Z,996.8
2022-10-01T02:26:04.243Z,996.8
2022-10-01T02:28:04.329Z,996.9
2022-10-01T02:31:04.275Z,996.8
2022-10-01T02:34:04.176Z,996.7
2022-10-01T02:37:04.253Z,996.7
2022-10-01T02:40:04.244Z,996.7
2022-10-01T02:43:04.238Z,996.7
2022-10-01T02:45:04.254Z,996.5
2022-10-01T02:48:04.239Z,996.5
2022-10-01T02:51:04.206Z,996.5
2022-10-01T02:53:04.223Z,996.5
2022-10-01T02:56:04.228Z,996.5
2022-10-01T02:58:04.235Z,996.5
2022-10-01T03:00:06.828Z,996.4
2022-10-01T03:03:04.229Z,996.5
2022-10-01T03:06:04.243Z,996.3
2022-10-01T03:09:04.227Z,996.4
2022-10-01T03:12:04.246Z,996.3
2022-10-01T03:14:04.229Z,996.3
2022-10-01T03:17:04.270Z,996.3
2022-10-01T03:20:04.207Z,996.3
2022-10-01T03:22:04.213Z,996.3
2022-10-01T03:25:04.228Z,996.3
2022-10-01T03:28:04.286Z,996.3
2022-10-01T03:30:04.259Z,996.3
2022-10-01T03:33:04.202Z,996.2
2022-10-01T03:36:04.260Z,996.1
2022-10-01T03:39:04.187Z,996.1
2022-10-01T03:41:04.193Z,996.1
2022-10-01T03:44:04.213Z,996.1
2022-10-01T03:46:04.704Z,996.1
2022-10-01T03:49:04.193Z,996.1
2022-10-01T03:52:04.240Z,996.1
2022-10-01T03:54:04.239Z,996.1
2022-10-01T03:57:04.273Z,996.1
2022-10-01T04:00:04.210Z,996
2022-10-01T04:03:04.255Z,996
2022-10-01T04:05:04.221Z,995.9
2022-10-01T04:07:04.304Z,995.9
2022-10-01T04:10:04.236Z,996
2022-10-01T04:12:04.222Z,995.9
2022-10-01T04:15:04.221Z,995.9
2022-10-01T04:18:04.223Z,996
2022-10-01T04:21:04.248Z,996.1
2022-10-01T04:24:04.285Z,996
2022-10-01T04:27:04.217Z,996
2022-10-01T04:29:04.252Z,996
2022-10-01T04:31:04.253Z,996.1
2022-10-01T04:33:04.247Z,995.9
2022-10-01T04:36:04.253Z,995.9
2022-10-01T04:39:04.247Z,995.9
2022-10-01T04:41:04.278Z,995.8
2022-10-01T04:44:04.232Z,995.8
2022-10-01T04:47:04.283Z,995.7
2022-10-01T04:49:04.257Z,995.6
2022-10-01T04:52:04.282Z,995.7
2022-10-01T04:55:04.224Z,995.7
2022-10-01T04:57:04.266Z,995.7
2022-10-01T05:00:04.258Z,995.7
2022-10-01T05:03:04.242Z,995.6
2022-10-01T05:05:04.234Z,995.6
2022-10-01T05:07:04.249Z,995.5
2022-10-01T05:09:04.234Z,995.5
2022-10-01T05:12:04.240Z,995.5
2022-10-01T05:14:04.244Z,995.4
2022-10-01T05:17:04.237Z,995.4
2022-10-01T05:20:04.254Z,995.4
2022-10-01T05:23:04.253Z,995.4
2022-10-01T05:25:04.228Z,995.4
2022-10-01T05:27:04.239Z,995.3
2022-10-01T05:30:04.257Z,995.3
2022-10-01T05:33:04.241Z,995.3
2022-10-01T05:36:04.303Z,995.3
2022-10-01T05:39:04.241Z,995.2
2022-10-01T05:41:04.269Z,995.4
2022-10-01T05:44:04.227Z,995.5
2022-10-01T05:46:04.335Z,995.5
2022-10-01T05:48:04.257Z,995.6
2022-10-01T05:51:04.558Z,995.6
2022-10-01T05:54:04.238Z,995.5
2022-10-01T05:56:04.244Z,995.4
2022-10-01T05:58:04.284Z,995.4
2022-10-01T06:01:04.266Z,995.4
2022-10-01T06:03:04.351Z,995.4
2022-10-01T06:06:04.282Z,995.4
2022-10-01T06:08:04.865Z,995.4
2022-10-01T06:11:04.252Z,995.3
2022-10-01T06:13:04.264Z,995.3
2022-10-01T06:15:04.280Z,995.2
2022-10-01T06:18:04.273Z,995.2
2022-10-01T06:21:04.291Z,995.2
2022-10-01T06:24:04.251Z,995.2
2022-10-01T06:27:04.259Z,995.1
2022-10-01T06:29:04.269Z,995
2022-10-01T06:31:04.290Z,995.1
2022-10-01T06:33:04.319Z,995
2022-10-01T06:36:04.264Z,995
2022-10-01T06:38:04.261Z,995
2022-10-01T06:41:04.250Z,994.9
2022-10-01T06:44:04.223Z,994.9
2022-10-01T06:46:04.644Z,994.9
2022-10-01T06:49:04.239Z,995
2022-10-01T06:51:05.265Z,995
2022-10-01T06:54:04.219Z,995.1
2022-10-01T06:56:04.284Z,995
2022-10-01T06:59:04.256Z,995.1
2022-10-01T07:02:04.296Z,995.1
2022-10-01T07:06:04.281Z,995.2
2022-10-01T07:09:04.247Z,995.3
2022-10-01T07:11:04.272Z,995.2
2022-10-01T07:14:04.257Z,995.4
2022-10-01T07:17:04.247Z,995.4
2022-10-01T07:19:04.250Z,995.4
2022-10-01T07:22:04.254Z,995.3
2022-10-01T07:24:04.259Z,995.3
2022-10-01T07:27:07.187Z,995.2
2022-10-01T07:31:04.268Z,995.2
2022-10-01T07:34:04.263Z,995
2022-10-01T07:36:04.282Z,994.8
2022-10-01T07:39:04.719Z,994.9
2022-10-01T07:42:04.285Z,995
2022-10-01T07:45:04.274Z,995
2022-10-01T07:47:04.292Z,995.1
2022-10-01T07:50:04.259Z,995.1
2022-10-01T07:52:04.307Z,995
2022-10-01T07:55:04.263Z,994.9
2022-10-01T07:57:04.277Z,994.8
2022-10-01T08:00:04.275Z,995.1
2022-10-01T08:03:04.246Z,995.2
2022-10-01T08:06:04.231Z,995.2
2022-10-01T08:08:04.255Z,995.3
2022-10-01T08:10:04.282Z,995.3
2022-10-01T08:13:04.289Z,995.5
2022-10-01T08:16:04.277Z,995.5
2022-10-01T08:19:04.241Z,995.5
2022-10-01T08:21:04.222Z,995.5
2022-10-01T08:24:04.225Z,995.3
2022-10-01T08:26:04.228Z,995.3
2022-10-01T08:28:04.290Z,995.4
2022-10-01T08:30:04.256Z,995.3
2022-10-01T08:33:04.234Z,995
2022-10-01T08:36:04.262Z,994.8
2022-10-01T08:38:04.274Z,994.6
2022-10-01T08:41:04.265Z,994.7
2022-10-01T08:43:04.255Z,994.9
2022-10-01T08:46:04.379Z,995.1
2022-10-01T08:49:04.255Z,995.2
2022-10-01T08:52:04.227Z,995.1
2022-10-01T08:54:04.246Z,995.2
2022-10-01T08:57:04.295Z,995.2
2022-10-01T09:00:04.232Z,995.1
2022-10-01T09:02:04.257Z,995.1
2022-10-01T09:04:04.308Z,994.9
2022-10-01T09:07:04.273Z,994.9
2022-10-01T09:09:04.278Z,995
2022-10-01T09:12:04.307Z,995.1
2022-10-01T09:14:04.305Z,995.1
2022-10-01T09:17:04.269Z,995.1
2022-10-01T09:19:04.257Z,995.1
2022-10-01T09:21:04.285Z,995.1
2022-10-01T09:23:04.322Z,995.3
2022-10-01T09:26:04.248Z,995.3
2022-10-01T09:29:04.250Z,995.3
2022-10-01T09:31:04.303Z,995.3
2022-10-01T09:34:04.249Z,995.2
2022-10-01T09:36:04.285Z,995.4
2022-10-01T09:38:04.305Z,995.3
2022-10-01T09:41:04.301Z,995.3
2022-10-01T09:44:04.239Z,995.2
2022-10-01T09:46:04.531Z,995.2
2022-10-01T09:48:04.293Z,995.2
2022-10-01T09:51:04.288Z,995.3
2022-10-01T09:53:04.297Z,995.2
2022-10-01T09:56:04.271Z,995.2
2022-10-01T09:58:04.260Z,995.2
2022-10-01T10:00:04.252Z,995.2
2022-10-01T10:03:04.427Z,995.2
2022-10-01T10:05:04.314Z,995.2
2022-10-01T10:07:04.352Z,995.2
2022-10-01T10:10:04.285Z,995.1
2022-10-01T10:13:05.328Z,995.2
2022-10-01T10:15:04.278Z,995.2
2022-10-01T10:17:04.300Z,995.2
2022-10-01T10:20:04.270Z,995.2
2022-10-01T10:22:04.275Z,995.3
2022-10-01T10:24:04.268Z,995.3
2022-10-01T10:26:04.290Z,995.4
2022-10-01T10:29:04.278Z,995.4
2022-10-01T10:32:04.246Z,995.3
2022-10-01T10:34:04.275Z,995.4
2022-10-01T10:36:04.330Z,995.4
2022-10-01T10:39:04.295Z,995.5
2022-10-01T10:42:04.265Z,995.4
2022-10-01T10:45:04.265Z,995.4
2022-10-01T10:47:04.271Z,995.4
2022-10-01T10:50:04.313Z,995.4
2022-10-01T10:53:04.277Z,995.5
2022-10-01T10:55:04.281Z,995.4
2022-10-01T10:58:05.183Z,995.5
2022-10-01T11:01:04.314Z,995.5
2022-10-01T11:04:04.275Z,995.6
2022-10-01T11:06:04.303Z,995.6
2022-10-01T11:09:04.286Z,995.5
2022-10-01T11:12:04.295Z,995.6
2022-10-01T11:14:04.294Z,995.6
2022-10-01T11:17:04.288Z,995.8
2022-10-01T11:19:04.294Z,995.7
2022-10-01T11:22:04.291Z,995.8
2022-10-01T11:25:04.312Z,995.8
2022-10-01T11:28:04.302Z,995.8
2022-10-01T11:31:04.334Z,995.8
2022-10-01T11:33:04.293Z,995.8
2022-10-01T11:36:04.311Z,995.9
2022-10-01T11:39:04.254Z,995.8
2022-10-01T11:41:04.294Z,995.9
2022-10-01T11:44:04.253Z,995.9
2022-10-01T11:46:04.359Z,995.9
2022-10-01T11:48:04.277Z,995.9
2022-10-01T11:51:04.327Z,995.9
2022-10-01T11:54:04.323Z,996
2022-10-01T11:56:04.268Z,995.9
2022-10-01T11:58:04.274Z,996.1
2022-10-01T12:00:04.346Z,996.1
2022-10-01T12:03:04.315Z,996.1
2022-10-01T12:05:04.383Z,996.1
2022-10-01T12:08:04.285Z,996.2
2022-10-01T12:10:04.334Z,996.1
2022-10-01T12:13:04.293Z,996.2
2022-10-01T12:16:04.339Z,996.3
2022-10-01T12:19:04.295Z,996.1
2022-10-01T12:21:04.288Z,996.1
2022-10-01T12:24:04.279Z,996.2
2022-10-01T12:27:04.323Z,996.1
2022-10-01T12:30:04.291Z,996.1
2022-10-01T12:33:04.304Z,995.9
2022-10-01T12:35:04.325Z,996
2022-10-01T12:38:04.272Z,996
2022-10-01T12:40:04.391Z,996
2022-10-01T12:43:04.577Z,995.9
2022-10-01T12:45:04.287Z,995.9
2022-10-01T12:47:04.310Z,995.9
2022-10-01T12:50:04.360Z,996
2022-10-01T12:52:04.315Z,996
2022-10-01T12:55:04.276Z,996
2022-10-01T12:59:04.313Z,995.9
2022-10-01T13:02:04.404Z,996
2022-10-01T13:05:04.248Z,996.2
2022-10-01T13:07:04.279Z,996.1
2022-10-01T13:09:04.293Z,996.1
2022-10-01T13:12:04.276Z,996.2
2022-10-01T13:14:04.279Z,996.2
2022-10-01T13:16:04.338Z,996.2
2022-10-01T13:18:04.271Z,996.3
2022-10-01T13:20:04.321Z,996.3
2022-10-01T13:22:04.478Z,996.2
2022-10-01T13:25:04.259Z,996.3
2022-10-01T13:27:04.269Z,996.3
2022-10-01T13:29:04.296Z,996.3
2022-10-01T13:32:04.273Z,996.4
2022-10-01T13:34:04.288Z,996.3
2022-10-01T13:37:04.261Z,996.3
2022-10-01T13:40:04.259Z,996.3
2022-10-01T13:42:04.306Z,996.4
2022-10-01T13:45:04.280Z,996.5
2022-10-01T13:48:04.288Z,996.4
2022-10-01T13:50:04.272Z,996.4
2022-10-01T13:53:04.296Z,996.3
2022-10-01T13:56:04.278Z,996.4
2022-10-01T13:58:04.323Z,996.4
2022-10-01T14:03:04.747Z,996.4
2022-10-01T14:06:04.295Z,996.5
2022-10-01T14:08:05.761Z,996.5
2022-10-01T14:10:04.341Z,996.6
2022-10-01T14:13:04.376Z,996.5
2022-10-01T14:16:04.327Z,996.6
2022-10-01T14:18:04.350Z,996.5
2022-10-01T14:21:04.306Z,996.6
2022-10-01T14:23:04.329Z,996.5
2022-10-01T14:26:04.341Z,996.6
2022-10-01T14:29:04.299Z,996.7
2022-10-01T14:31:04.343Z,996.6
2022-10-01T14:33:04.329Z,996.6
2022-10-01T14:35:04.312Z,996.7
2022-10-01T14:38:04.318Z,996.7
2022-10-01T14:41:04.349Z,996.6
2022-10-01T14:44:04.327Z,996.7
2022-10-01T14:47:04.302Z,996.7
2022-10-01T14:49:04.305Z,996.7
2022-10-01T14:51:04.361Z,996.7
2022-10-01T14:54:04.308Z,996.7
2022-10-01T14:56:04.309Z,996.6
2022-10-01T14:59:04.348Z,996.8
2022-10-01T15:02:04.315Z,996.7
2022-10-01T15:04:04.391Z,996.8
2022-10-01T15:06:04.336Z,996.8
2022-10-01T15:09:04.342Z,996.8
2022-10-01T15:12:04.387Z,996.7
2022-10-01T15:15:04.330Z,996.9
2022-10-01T15:17:04.379Z,996.9
2022-10-01T15:20:04.331Z,997
2022-10-01T15:22:11.260Z,996.9
2022-10-01T15:25:04.329Z,997
2022-10-01T15:27:04.357Z,996.9
2022-10-01T15:30:04.319Z,996.9
2022-10-01T15:32:04.317Z,997
2022-10-01T15:35:04.325Z,996.9
2022-10-01T15:38:04.313Z,997
2022-10-01T15:41:20.067Z,997.1
2022-10-01T15:43:04.302Z,997
2022-10-01T15:45:04.309Z,997
2022-10-01T15:48:04.342Z,997.2
2022-10-01T15:51:04.325Z,997.2
2022-10-01T15:54:04.313Z,997.3
2022-10-01T15:56:04.334Z,997.3
2022-10-01T15:59:04.314Z,997.3
2022-10-01T16:01:04.512Z,997.3
2022-10-01T16:03:04.318Z,997.3
2022-10-01T16:06:04.326Z,997.3
2022-10-01T16:08:04.360Z,997.3
2022-10-01T16:11:04.319Z,997.3
2022-10-01T16:13:04.360Z,997.3
2022-10-01T16:16:04.358Z,997.4
2022-10-01T16:19:04.312Z,997.6
2022-10-01T16:21:58.739Z,997.7
2022-10-01T16:24:04.316Z,997.8
2022-10-01T16:26:05.313Z,997.8
2022-10-01T16:29:04.340Z,998
2022-10-01T16:32:04.327Z,998
2022-10-01T16:35:04.337Z,998
2022-10-01T16:38:04.318Z,997.9
2022-10-01T16:41:04.352Z,997.9
2022-10-01T16:44:04.339Z,998
2022-10-01T16:46:04.383Z,998.1
2022-10-01T16:49:04.436Z,998
2022-10-01T16:51:04.320Z,998
2022-10-01T16:53:04.324Z,998
2022-10-01T16:56:04.310Z,998.1
2022-10-01T16:58:04.314Z,998.2
2022-10-01T17:00:04.351Z,998.3
2022-10-01T17:03:04.322Z,998.4
2022-10-01T17:05:04.433Z,998.4
2022-10-01T17:08:04.310Z,998.4
2022-10-01T17:11:04.352Z,998.4
2022-10-01T17:13:04.346Z,998.4
2022-10-01T17:16:04.415Z,998.4
2022-10-01T17:18:04.326Z,998.4
2022-10-01T17:21:04.510Z,998.4
2022-10-01T17:24:04.324Z,998.4
2022-10-01T17:26:04.345Z,998.4
2022-10-01T17:29:04.335Z,998.4
2022-10-01T17:32:04.387Z,998.6
2022-10-01T17:35:04.345Z,998.7
2022-10-01T17:38:04.331Z,998.8
2022-10-01T17:41:04.311Z,998.8
2022-10-01T17:43:04.362Z,998.9
2022-10-01T17:46:04.352Z,999
2022-10-01T17:48:04.364Z,999
2022-10-01T17:51:04.332Z,999.2
2022-10-01T17:54:04.322Z,999.2
2022-10-01T17:56:04.326Z,999.2
2022-10-01T17:59:04.361Z,999.3
2022-10-01T18:02:14.038Z,999.3
2022-10-01T18:04:04.366Z,999.4
2022-10-01T18:07:04.329Z,999.4
2022-10-01T18:10:04.340Z,999.5
2022-10-01T18:13:04.341Z,999.5
2022-10-01T18:15:04.356Z,999.5
2022-10-01T18:21:05.386Z,999.5
2022-10-01T18:23:04.343Z,999.5
2022-10-01T18:26:04.338Z,999.6
2022-10-01T18:29:04.370Z,999.7
2022-10-01T18:31:04.379Z,999.7
2022-10-01T18:33:04.535Z,999.7
2022-10-01T18:36:05.230Z,999.8
2022-10-01T18:38:04.367Z,999.8
2022-10-01T18:40:04.415Z,999.8
2022-10-01T18:43:04.325Z,999.9
2022-10-01T18:45:04.345Z,1000
2022-10-01T18:48:04.352Z,1000
2022-10-01T18:50:04.989Z,1000.1
2022-10-01T18:53:04.359Z,1000.1
2022-10-01T18:56:04.351Z,1000.2
2022-10-01T18:58:04.354Z,1000.2
2022-10-01T19:00:04.395Z,1000.4
2022-10-01T19:03:04.361Z,1000.4
2022-10-01T19:05:04.349Z,1000.4
2022-10-01T19:08:04.331Z,1000.5
2022-10-01T19:10:04.373Z,1000.5
2022-10-01T19:13:04.342Z,1000.5
2022-10-01T19:15:04.351Z,1000.5
2022-10-01T19:17:04.369Z,1000.5
2022-10-01T19:20:04.353Z,1000.7
2022-10-01T19:22:04.344Z,1000.6
2022-10-01T19:25:04.357Z,1000.7
2022-10-01T19:27:04.365Z,1000.8
2022-10-01T19:30:04.417Z,1000.9
2022-10-01T19:33:04.359Z,1000.9
2022-10-01T19:36:04.349Z,1000.9
2022-10-01T19:39:04.349Z,1001
2022-10-01T19:41:04.365Z,1001
2022-10-01T19:44:04.342Z,1001
2022-10-01T19:47:04.394Z,1001.1
2022-10-01T19:51:04.379Z,1001.1
2022-10-01T19:54:04.381Z,1001.2
2022-10-01T19:57:04.375Z,1001.2
2022-10-01T19:59:04.379Z,1001.3
2022-10-01T20:01:04.449Z,1001.4
2022-10-01T20:04:04.378Z,1001.5
2022-10-01T20:06:04.397Z,1001.5
2022-10-01T20:09:04.394Z,1001.6
2022-10-01T20:11:04.409Z,1001.5
2022-10-01T20:14:04.395Z,1001.6
2022-10-01T20:17:04.327Z,1001.6
2022-10-01T20:19:04.432Z,1001.6
2022-10-01T20:22:04.373Z,1001.7
2022-10-01T20:25:04.368Z,1001.6
2022-10-01T20:27:04.372Z,1001.8
2022-10-01T20:30:04.486Z,1001.7
2022-10-01T20:33:04.350Z,1001.7
2022-10-01T20:35:04.395Z,1001.8
2022-10-01T20:38:04.363Z,1001.9
2022-10-01T20:40:04.386Z,1001.8
2022-10-01T20:43:04.375Z,1001.8
2022-10-01T20:46:04.513Z,1001.8
2022-10-01T20:49:04.338Z,1001.8
2022-10-01T20:51:04.634Z,1001.9
2022-10-01T20:54:04.375Z,1001.9
2022-10-01T20:56:04.432Z,1002
2022-10-01T20:59:04.366Z,1002
2022-10-01T21:02:04.390Z,1001.9
2022-10-01T21:04:04.360Z,1002
2022-10-01T21:06:04.415Z,1002
2022-10-01T21:09:04.365Z,1002
2022-10-01T21:11:04.435Z,1001.9
2022-10-01T21:14:04.370Z,1002
2022-10-01T21:16:04.473Z,1002.1
2022-10-01T21:19:04.358Z,1002.2
2022-10-01T21:21:04.395Z,1002.3
2022-10-01T21:23:04.384Z,1002.3
2022-10-01T21:26:04.404Z,1002.3
2022-10-01T21:29:04.382Z,1002.3
2022-10-01T21:32:04.585Z,1002.3
2022-10-01T21:34:04.366Z,1002.3
2022-10-01T21:36:04.371Z,1002.3
2022-10-01T21:39:04.432Z,1002.5
2022-10-01T21:41:04.393Z,1002.5
2022-10-01T21:43:04.413Z,1002.6
2022-10-01T21:46:04.478Z,1002.5
2022-10-01T21:49:04.349Z,1002.6
2022-10-01T21:51:04.379Z,1002.7
2022-10-01T21:54:04.370Z,1002.6
2022-10-01T21:57:04.371Z,1002.8
2022-10-01T22:00:04.405Z,1002.8
2022-10-01T22:03:04.443Z,1002.6
2022-10-01T22:06:04.403Z,1002.8
2022-10-01T22:08:04.440Z,1002.8
2022-10-01T22:11:04.375Z,1002.8
2022-10-01T22:17:04.425Z,1003
2022-10-01T22:20:04.401Z,1003
2022-10-01T22:22:04.529Z,1002.9
2022-10-01T22:25:04.407Z,1003
2022-10-01T22:28:04.405Z,1003.1
2022-10-01T22:30:04.554Z,1003
2022-10-01T22:33:05.187Z,1002.9
2022-10-01T22:36:04.394Z,1003
2022-10-01T22:39:04.398Z,1003
2022-10-01T22:42:04.399Z,1003.1
2022-10-01T22:44:04.389Z,1003.1
2022-10-01T22:47:04.399Z,1003.1
2022-10-01T22:49:04.422Z,1003.2
2022-10-01T22:52:04.391Z,1003.2
2022-10-01T22:54:04.434Z,1003.1
2022-10-01T22:57:04.415Z,1003.2
2022-10-01T23:00:04.435Z,1003.4
2022-10-01T23:02:04.822Z,1003.5
2022-10-01T23:05:04.405Z,1003.6
2022-10-01T23:07:04.381Z,1003.6
2022-10-01T23:09:04.395Z,1003.7
2022-10-01T23:12:04.400Z,1003.8
2022-10-01T23:14:04.622Z,1003.7
2022-10-01T23:17:04.379Z,1003.7
2022-10-01T23:19:04.393Z,1003.7
2022-10-01T23:21:04.403Z,1003.7
2022-10-01T23:24:04.448Z,1003.8
2022-10-01T23:26:04.435Z,1003.8
2022-10-01T23:29:04.412Z,1004
2022-10-01T23:31:05.172Z,1004.1
2022-10-01T23:33:11.634Z,1004
2022-10-01T23:36:04.420Z,1004
2022-10-01T23:39:04.443Z,1004
2022-10-01T23:42:04.399Z,1004.1
2022-10-01T23:44:04.431Z,1004.1
2022-10-01T23:47:04.437Z,1004
2022-10-01T23:50:04.375Z,1003.9
2022-10-01T23:52:04.372Z,1003.9
2022-10-01T23:55:05.115Z,1003.9
2022-10-01T23:58:04.372Z,1004
